Kirov, Russia
Current Conditions -  °F | °C
As of 12:30 PM on Wednesday 22 Oct 2014 (Local Time) from UWKS Reporting Station
Snow Showers Snow Showers  
Wind Chill: 10°   Ceiling: 1300
Heat Index: 21°   Visibility: 2.1mi
Dew Point: 18°   Wind: 11mph
Humidity: 86%   Direction: 300°WNW
Pressure: 29.41"   Gusts: NA
Location:  58.6°N, 49.66°E
Report Text: UWKS 220830Z 30005MPS 3400 -SHSN OVC013CB M06/M08 Q0996 NOSIGRMK QFE733 24490332
Loading
Personal Weather Stations






























Interactive Weather Map
Tropical Storm Tracking
New forecast layout! Learn more

10-Day Weather Forecast

Advertisements
Track Severe Weather on mobile